Skip Navigation Links Skip Navigation Links

Current Weather

Iqaluit, Nunavut

For information only: do not use for flight planning or navigation.
Latest weather
Observation time Sunday, May 31, 2020 8:00 AM EDT
Local time Sunday, May 31, 2020 8:12 AM EDT
Flight conditions Instrument Meteorological Conditions
Winds
Wind direction South-Southeast (150°)
Wind speed 6 mph
Visibility 4 mi.
Present weather light snow
Sky condition
Ceiling 700 ft. broken clouds
Cloud layer broken clouds 700 ft.
Cloud layer overcast 3,000 ft.
Temperature 30°F
Dewpoint 28°F
Altimeter 29.92 in.Hg
Derived measurements
Relative humidity 93%
Wind chill 24°F
Density altitude -1766 ft.
Sea-level pressure 29.93 in.Hg
METAR CYFB 311200Z 15005KT 4SM -SN BKN007 OVC030 M01/M02 A2992 RMK SF6SC2 SLP135

Settings

Location code

InnerDrive.Weather 4.0.6770.0 Release CLR 4.0.30319.42000
Copyright ©2018 Inner Drive Technology. All rights reserved. Portions Copyright ©1986-2018 David Braverman.

Find weather

Site navigation


Skip Navigation Links

Place info

Page info

PayPal - The safer, easier way to pay online!

Return home.

Copyright ©2020 Inner Drive Technology. Purveyors of fine, hand-crafted computer software. Page printed 2020-05-31T12:12:45 UTC.